Kendallville, Iowa
Current Conditions -  °F | °C
As of 7:15 PM on Saturday 20 Dec 2014 (Local Time) from KFKA Reporting Station
Haze Haze  
Wind Chill: 22°   Ceiling: 700
Heat Index: 30°   Visibility: 3mi
Dew Point: 28°   Wind: 8mph
Humidity: 95%   Direction: 170°S
Pressure: 30.14"   Gusts: NA
Location:  43.363°N, 92.1685°W
Report Text: KFKA 210115Z AUTO 17007KT 3SM BR BKN007 OVC011 M01/M02 A3014 RMK AO2 T10131020
Loading
Personal Weather Stations






























Interactive Weather Map New forecast layout! Learn more

10-Day Weather Forecast

Advertisements
Track Severe Weather on mobile